createdAt,value
2023-02-11T00:03:27.541Z,103315.34
2023-02-11T00:07:30.575Z,103309.06
2023-02-11T00:11:32.929Z,103303.75
2023-02-11T00:15:34.631Z,103296.66
2023-02-11T00:19:36.541Z,103306.31
2023-02-11T00:23:38.374Z,103300.16
2023-02-11T00:27:40.179Z,103293.06
2023-02-11T00:31:42.165Z,103287.75
2023-02-11T00:35:44.037Z,103279.78
2023-02-11T00:39:45.765Z,103271.81
2023-02-11T00:43:48.097Z,103288.59
2023-02-11T00:47:49.823Z,103295.72
2023-02-11T00:51:51.584Z,103293.91
2023-02-11T00:55:53.259Z,103288.53
2023-02-11T00:59:55.331Z,103304.47
2023-02-11T01:03:57.328Z,103302.81
2023-02-11T01:07:59.326Z,103282.53
2023-02-11T01:12:01.072Z,103273.75
2023-02-11T01:16:04.159Z,103282.66
2023-02-11T01:20:08.260Z,103278.47
2023-02-11T01:24:09.997Z,103290.09
2023-02-11T01:28:20.184Z,103271.75
2023-02-11T01:32:21.952Z,103259.56
2023-02-11T01:36:23.739Z,103256.13
2023-02-11T01:40:25.553Z,103245.84
2023-02-11T01:44:33.159Z,103266.38
2023-02-11T01:48:39.278Z,103278.00
2023-02-11T01:52:42.701Z,103272.97
2023-02-11T01:57:08.491Z,103281.13
2023-02-11T02:01:14.918Z,103278.63
2023-02-11T02:05:23.448Z,103264.69
2023-02-11T02:09:32.508Z,103252.53
2023-02-11T02:13:35.382Z,103248.16
2023-02-11T02:18:08.268Z,103243.94
2023-02-11T02:22:47.160Z,103247.69
2023-02-11T02:27:05.998Z,103269.97
2023-02-11T02:31:16.516Z,103286.03
2023-02-11T02:35:32.452Z,103288.81
2023-02-11T02:39:36.614Z,103281.81
2023-02-11T02:43:41.795Z,103266.03
2023-02-11T02:47:43.640Z,103259.88
2023-02-11T02:52:09.596Z,103254.72
2023-02-11T02:56:16.735Z,103262.97
2023-02-11T03:00:41.922Z,103277.25
2023-02-11T03:04:57.612Z,103271.28
2023-02-11T03:09:24.324Z,103261.78
2023-02-11T03:13:33.661Z,103261.06
2023-02-11T03:17:39.117Z,103255.03
2023-02-11T03:21:43.945Z,103260.56
2023-02-11T03:26:28.600Z,103258.06
2023-02-11T03:30:40.452Z,103246.75
2023-02-11T03:34:51.542Z,103247.06
2023-02-11T03:38:57.058Z,103245.47
2023-02-11T03:43:01.356Z,103249.25
2023-02-11T03:47:05.848Z,103237.19
2023-02-11T03:51:11.013Z,103241.66
2023-02-11T03:55:17.704Z,103244.44
2023-02-11T03:59:19.730Z,103234.88
2023-02-11T04:03:21.495Z,103232.50
2023-02-11T04:07:24.147Z,103227.34
2023-02-11T04:11:25.921Z,103239.88
2023-02-11T04:15:27.764Z,103240.00
2023-02-11T04:19:29.540Z,103236.59
2023-02-11T04:23:31.228Z,103235.78
2023-02-11T04:27:33.009Z,103241.16
2023-02-11T04:31:34.795Z,103243.72
2023-02-11T04:35:36.554Z,103242.72
2023-02-11T04:39:38.279Z,103241.75
2023-02-11T04:43:40.026Z,103233.63
2023-02-11T04:47:41.725Z,103236.00
2023-02-11T04:51:47.545Z,103229.63
2023-02-11T04:55:51.656Z,103216.13
2023-02-11T04:59:53.641Z,103225.72
2023-02-11T05:03:55.409Z,103237.94
2023-02-11T05:07:57.351Z,103238.75
2023-02-11T05:11:59.040Z,103239.50
2023-02-11T05:16:00.924Z,103250.91
2023-02-11T05:20:02.695Z,103253.34
2023-02-11T05:24:04.783Z,103258.41
2023-02-11T05:28:06.820Z,103264.53
2023-02-11T05:32:09.195Z,103266.09
2023-02-11T05:36:13.585Z,103262.38
2023-02-11T05:40:15.457Z,103263.94
2023-02-11T05:44:17.235Z,103274.41
2023-02-11T05:48:19.071Z,103257.50
2023-02-11T05:52:24.364Z,103272.38
2023-02-11T05:56:26.081Z,103261.78
2023-02-11T06:00:27.895Z,103258.22
2023-02-11T06:04:29.689Z,103265.06
2023-02-11T06:08:31.396Z,103265.78
2023-02-11T06:12:33.617Z,103258.59
2023-02-11T06:16:35.363Z,103264.63
2023-02-11T06:20:37.516Z,103264.34
2023-02-11T06:24:58.918Z,103255.28
2023-02-11T06:29:01.208Z,103259.41
2023-02-11T06:33:02.997Z,103250.44
2023-02-11T06:37:05.183Z,103259.88
2023-02-11T06:41:10.341Z,103274.78
2023-02-11T06:45:13.428Z,103277.19
2023-02-11T06:49:15.307Z,103264.56
2023-02-11T06:53:17.140Z,103259.09
2023-02-11T06:57:18.881Z,103264.25
2023-02-11T07:01:21.375Z,103280.19
2023-02-11T07:05:23.197Z,103290.78
2023-02-11T07:09:24.938Z,103285.50
2023-02-11T07:13:26.725Z,103280.19
2023-02-11T07:17:28.562Z,103289.84
2023-02-11T07:21:30.855Z,103293.31
2023-02-11T07:25:32.600Z,103308.28
2023-02-11T07:29:34.935Z,103301.13
2023-02-11T07:33:37.363Z,103304.53
2023-02-11T07:37:39.100Z,103310.69
2023-02-11T07:41:40.900Z,103316.72
2023-02-11T07:45:42.615Z,103315.72
2023-02-11T07:49:45.271Z,103300.63
2023-02-11T07:53:47.519Z,103296.13
2023-02-11T07:57:49.252Z,103306.56
2023-02-11T08:01:51.642Z,103316.09
2023-02-11T08:05:53.538Z,103308.91
2023-02-11T08:09:55.669Z,103314.00
2023-02-11T08:13:57.671Z,103310.31
2023-02-11T08:17:59.502Z,103318.91
2023-02-11T08:22:01.527Z,103321.41
2023-02-11T08:26:04.963Z,103330.03
2023-02-11T08:30:07.332Z,103339.53
2023-02-11T08:34:11.607Z,103347.28
2023-02-11T08:38:13.368Z,103355.00
2023-02-11T08:42:17.842Z,103357.34
2023-02-11T08:46:20.261Z,103350.94
2023-02-11T08:50:22.178Z,103363.13
2023-02-11T08:54:23.909Z,103362.97
2023-02-11T08:58:25.610Z,103360.91
2023-02-11T09:02:27.443Z,103356.16
2023-02-11T09:06:29.892Z,103353.16
2023-02-11T09:10:31.564Z,103364.25
2023-02-11T09:14:33.563Z,103366.50
2023-02-11T09:18:35.345Z,103361.63
2023-02-11T09:22:37.093Z,103371.16
2023-02-11T09:26:43.379Z,103370.03
2023-02-11T09:30:45.189Z,103379.56
2023-02-11T09:34:46.970Z,103385.84
2023-02-11T09:38:49.165Z,103385.75
2023-02-11T09:42:53.562Z,103388.34
2023-02-11T09:46:59.842Z,103384.72
2023-02-11T09:51:04.208Z,103376.66
2023-02-11T09:55:30.711Z,103379.94
2023-02-11T09:59:32.533Z,103400.88
2023-02-11T10:04:02.422Z,103405.69
2023-02-11T10:08:09.967Z,103406.22
2023-02-11T10:12:28.672Z,103416.50
2023-02-11T10:16:33.564Z,103413.63
2023-02-11T10:20:39.415Z,103424.75
2023-02-11T10:24:48.568Z,103431.47
2023-02-11T10:28:53.990Z,103434.75
2023-02-11T10:33:03.377Z,103445.22
2023-02-11T10:37:07.241Z,103441.47
2023-02-11T10:41:26.344Z,103447.28
2023-02-11T10:45:32.423Z,103452.53
2023-02-11T10:49:44.457Z,103464.09
2023-02-11T10:54:13.887Z,103473.03
2023-02-11T10:58:25.262Z,103463.19
2023-02-11T11:02:34.727Z,103463.94
2023-02-11T11:06:36.722Z,103474.44
2023-02-11T11:10:43.767Z,103470.81
2023-02-11T11:14:55.611Z,103479.75
2023-02-11T11:19:06.442Z,103474.53
2023-02-11T11:23:22.831Z,103482.41
2023-02-11T11:27:26.033Z,103483.38
2023-02-11T11:31:35.814Z,103481.66
2023-02-11T11:35:37.734Z,103481.47
2023-02-11T11:39:40.576Z,103479.34
2023-02-11T11:43:55.240Z,103478.91
2023-02-11T11:48:24.143Z,103486.31
2023-02-11T11:52:31.877Z,103482.50
2023-02-11T11:56:38.145Z,103473.56
2023-02-11T12:00:49.163Z,103485.97
2023-02-11T12:05:07.874Z,103481.38
2023-02-11T12:09:09.533Z,103477.69
2023-02-11T12:13:25.696Z,103485.78
2023-02-11T12:17:33.639Z,103476.69
2023-02-11T12:21:59.365Z,103484.41
2023-02-11T12:26:17.929Z,103484.97
2023-02-11T12:30:38.757Z,103482.13
2023-02-11T12:35:17.359Z,103473.28
2023-02-11T12:39:49.843Z,103478.50
2023-02-11T12:43:52.105Z,103486.44
2023-02-11T12:48:22.668Z,103494.34
2023-02-11T12:52:42.453Z,103486.06
2023-02-11T12:56:50.996Z,103483.50
2023-02-11T13:01:01.105Z,103483.66
2023-02-11T13:05:14.352Z,103485.59
2023-02-11T13:09:24.790Z,103486.34
2023-02-11T13:13:35.968Z,103483.00
2023-02-11T13:18:01.207Z,103482.31
2023-02-11T13:22:16.704Z,103483.09
2023-02-11T13:26:28.752Z,103475.94
2023-02-11T13:30:35.525Z,103460.03
2023-02-11T13:34:43.213Z,103467.94
2023-02-11T13:38:54.109Z,103476.69
2023-02-11T13:43:00.328Z,103482.25
2023-02-11T13:47:05.515Z,103464.44
2023-02-11T13:51:10.734Z,103465.38
2023-02-11T13:55:23.393Z,103460.22
2023-02-11T13:59:25.053Z,103459.19
2023-02-11T14:04:11.731Z,103462.78
2023-02-11T14:08:40.954Z,103472.03
2023-02-11T14:12:42.849Z,103468.69
2023-02-11T14:16:59.800Z,103465.31
2023-02-11T14:21:18.306Z,103462.56
2023-02-11T14:25:25.544Z,103473.91
2023-02-11T14:29:36.093Z,103472.09
2023-02-11T14:33:57.572Z,103473.06
2023-02-11T14:38:18.122Z,103475.78
2023-02-11T14:42:25.522Z,103471.41
2023-02-11T14:46:30.354Z,103476.84
2023-02-11T14:50:41.603Z,103474.25
2023-02-11T14:54:45.248Z,103477.88
2023-02-11T14:58:52.001Z,103490.22
2023-02-11T15:02:53.914Z,103497.38
2023-02-11T15:06:57.631Z,103493.09
2023-02-11T15:11:02.816Z,103496.78
2023-02-11T15:15:04.895Z,103504.84
2023-02-11T15:19:07.676Z,103496.28
2023-02-11T15:23:21.936Z,103502.72
2023-02-11T15:27:25.885Z,103500.06
2023-02-11T15:31:28.521Z,103510.13
2023-02-11T15:35:44.535Z,103509.50
2023-02-11T15:39:46.303Z,103507.88
2023-02-11T15:43:51.136Z,103502.59
2023-02-11T15:48:13.772Z,103500.09
2023-02-11T15:52:23.859Z,103495.03
2023-02-11T15:56:44.718Z,103501.38
2023-02-11T16:00:50.015Z,103503.28
2023-02-11T16:04:58.553Z,103506.91
2023-02-11T16:09:06.726Z,103517.63
2023-02-11T16:13:08.380Z,103519.59
2023-02-11T16:17:24.239Z,103518.03
2023-02-11T16:21:39.000Z,103519.00
2023-02-11T16:25:42.556Z,103526.19
2023-02-11T16:29:47.813Z,103520.09
2023-02-11T16:33:49.526Z,103531.72
2023-02-11T16:37:51.331Z,103543.38
2023-02-11T16:41:53.117Z,103541.72
2023-02-11T16:45:54.810Z,103552.38
2023-02-11T16:49:57.646Z,103548.00
2023-02-11T16:53:59.416Z,103554.28
2023-02-11T16:58:01.284Z,103551.63
2023-02-11T17:02:03.090Z,103555.13
2023-02-11T17:06:10.295Z,103557.84
2023-02-11T17:10:21.083Z,103550.91
2023-02-11T17:14:22.809Z,103550.97
2023-02-11T17:18:24.677Z,103554.69
2023-02-11T17:22:26.380Z,103566.94
2023-02-11T17:26:28.140Z,103572.28
2023-02-11T17:30:29.955Z,103588.25
2023-02-11T17:34:32.484Z,103589.28
2023-02-11T17:38:35.645Z,103584.88
2023-02-11T17:42:37.366Z,103577.94
2023-02-11T17:46:39.191Z,103586.84
2023-02-11T17:50:40.959Z,103585.22
2023-02-11T17:54:42.647Z,103581.78
2023-02-11T17:58:44.630Z,103588.09
2023-02-11T18:02:46.388Z,103596.28
2023-02-11T18:06:48.106Z,103588.34
2023-02-11T18:10:49.866Z,103605.25
2023-02-11T18:14:57.547Z,103606.13
2023-02-11T18:18:59.787Z,103613.25
2023-02-11T18:23:01.811Z,103614.25
2023-02-11T18:27:03.877Z,103632.03
2023-02-11T18:31:06.787Z,103632.97
2023-02-11T18:35:14.814Z,103635.63
2023-02-11T18:39:17.530Z,103636.63
2023-02-11T18:43:20.355Z,103634.13
2023-02-11T18:47:22.055Z,103634.28
2023-02-11T18:51:24.167Z,103637.72
2023-02-11T18:55:26.120Z,103642.25
2023-02-11T18:59:27.929Z,103639.59
2023-02-11T19:03:29.692Z,103634.28
2023-02-11T19:07:32.584Z,103641.50
2023-02-11T19:11:54.346Z,103636.16
2023-02-11T19:15:56.253Z,103638.03
2023-02-11T19:19:58.060Z,103634.47
2023-02-11T19:24:00.914Z,103635.47
2023-02-11T19:28:03.520Z,103653.22
2023-02-11T19:32:06.265Z,103649.72
2023-02-11T19:36:09.747Z,103648.84
2023-02-11T19:40:12.531Z,103640.88
2023-02-11T19:44:14.472Z,103645.25
2023-02-11T19:48:16.220Z,103643.53
2023-02-11T19:52:17.917Z,103649.84
2023-02-11T19:56:20.911Z,103655.19
2023-02-11T20:00:22.801Z,103659.63
2023-02-11T20:04:25.244Z,103658.69
2023-02-11T20:08:27.091Z,103664.81
2023-02-11T20:12:29.016Z,103669.25
2023-02-11T20:16:46.801Z,103673.72
2023-02-11T20:20:49.564Z,103679.13
2023-02-11T20:24:51.338Z,103686.16
2023-02-11T20:28:54.944Z,103679.03
2023-02-11T20:32:58.553Z,103685.19
2023-02-11T20:37:00.676Z,103689.66
2023-02-11T20:41:07.940Z,103696.88
2023-02-11T20:45:10.705Z,103697.75
2023-02-11T20:49:19.009Z,103699.69
2023-02-11T20:53:20.750Z,103703.19
2023-02-11T20:57:22.504Z,103710.41
2023-02-11T21:01:30.892Z,103710.59
2023-02-11T21:05:32.681Z,103724.94
2023-02-11T21:09:34.537Z,103726.78
2023-02-11T21:13:38.000Z,103724.22
2023-02-11T21:17:39.731Z,103728.59
2023-02-11T21:21:42.056Z,103729.53
2023-02-11T21:25:43.766Z,103725.13
2023-02-11T21:29:53.847Z,103732.19
2023-02-11T21:33:59.389Z,103733.13
2023-02-11T21:38:01.431Z,103741.03
2023-02-11T21:42:03.453Z,103748.16
2023-02-11T21:46:14.615Z,103753.47
2023-02-11T21:50:20.056Z,103757.84
2023-02-11T21:54:22.003Z,103748.94
2023-02-11T21:58:24.034Z,103764.88
2023-02-11T22:02:25.898Z,103759.66
2023-02-11T22:06:31.158Z,103757.03
2023-02-11T22:10:32.976Z,103756.19
2023-02-11T22:14:36.050Z,103759.78
2023-02-11T22:18:38.155Z,103762.38
2023-02-11T22:22:39.829Z,103768.56
2023-02-11T22:26:41.580Z,103757.00
2023-02-11T22:30:43.328Z,103755.19
2023-02-11T22:34:45.147Z,103747.22
2023-02-11T22:38:47.497Z,103752.63
2023-02-11T22:42:49.258Z,103753.63
2023-02-11T22:46:52.608Z,103760.59
2023-02-11T22:50:54.612Z,103757.84
2023-02-11T22:54:56.369Z,103770.34
2023-02-11T22:59:03.627Z,103757.94
2023-02-11T23:03:06.589Z,103772.09
2023-02-11T23:07:08.529Z,103772.09
2023-02-11T23:11:11.755Z,103773.94
2023-02-11T23:15:13.656Z,103774.88
2023-02-11T23:19:17.111Z,103779.25
2023-02-11T23:23:18.800Z,103775.84
2023-02-11T23:27:20.551Z,103774.09
2023-02-11T23:31:28.235Z,103768.91
2023-02-11T23:35:30.174Z,103770.66
2023-02-11T23:39:31.924Z,103779.41
2023-02-11T23:43:34.009Z,103780.25
2023-02-11T23:47:35.775Z,103787.38
2023-02-11T23:51:37.543Z,103785.66
2023-02-11T23:55:43.467Z,103770.66
2023-02-11T23:59:49.523Z,103773.31
